Aeroporto :
LOGIN :

Iscrizione | Disclaimer

   EN    FR    IT 

 










Sommario :    VFR   VFR Marginale   IFR   IFR Intensivo   IFR Molto Intensivo
Visibilità : 
Base nubi : 
>= 8 km
>= 3000ft
5 / 8 km
1000 / 3000 ft
1500m / 5 km
500 / 1000 ft
800 / 1500m
200 / 500 ft
< 800m
< 200 ft
Simboli :   Temporali  Nebbia  Neve Forte  Precipitazioni Forti  Vento > 20 kt
SIGMETs :   Varie  Temporali  Ghiacco  Turbolenza  Onda orograficha  Ceneri Vulcaniche






- Altitudine del aeroporto : 162 ft
- Codice IATA : BOD


LFBD - Bordeaux / Merignac

ULTIMO METAR :
  • 062030Z AUTO 15005KT 4100 BR OVC002 07/07 Q1022 NOSIG

METARs OBSOLETI :
  • 062000Z AUTO 14003KT 4600 BR OVC003 07/07 Q1022 NOSIG
  • 061930Z AUTO 17003KT 4700 BR OVC003 07/07 Q1022 NOSIG
  • 061900Z AUTO VRB03KT 4900 BR OVC003 07/07 Q1021 NOSIG
  • 061830Z AUTO 16002KT 6000 BKN004 OVC100 07/07 Q1022 TEMPO 3000 BR
  • 061800Z AUTO 00000KT 6000 OVC004 07/07 Q1021 TEMPO 3000 BR
  • 061730Z AUTO 15006KT 4900 BR OVC004 07/07 Q1021 NOSIG

TAF AMD TAF LFBD
Valido dal 06 a 18 ore il 08 a 00 ore UTC


061730Z 0618/0724 20005KT 6000 OVC005 TX12/0715Z TN06/0622Z
TEMPO 0618/0702 3000 BR OVC003
TEMPO 0702/0710 1500 -RADZ OVC002
PROB40
TEMPO 0702/0711 0800 BCFG
BECMG 0720/0722 9999 BKN040
ATIS : +33 5 57 92 81 04



MetMap, La meteo Aeronautica in un colpo d'occhio ! - Copyright ORBIFLY Dicembre 2007 - Disclaimer

ORBIFLY MET'MAP TEAM :

Programmazione e sviluppo : Alexandra Zaïnal
Concezione : Baudouin d'Aumeries
Aiuto per la programmazione : Marc-Olivier Méhu
Supporto tecnico e logistico : Manuel Goepfert
Aiuto per la traduzione : Arnaldo La Scala

Contatto : metmap@orbifly.com




FONTI E CREDITI :

   NOAA